Huvudsida
METAR-TAF:

METAR-TAF

Flygplatser :

Härjedalen Sveg Airport

Sveg, Sverige

latitud: 62-02-52N, longitud: 014-25-22E, höjd: 359 m

Aktuellt väderrapport

Denna rapport gjordes för 10 minuter sedan, klockan 11:50 UTC
Vind 10 kt från syd/sydväst, varierande mellan syd och sydväst
Temperatur 19°C
Fuktighet 68%
Tryck 1009 hPa
Sikt 10 km eller mer

METAR: ESND 161150Z AUTO 20010KT 170V230 9999 SCT034/// BKN041/// BKN059/// 19/13 Q1009

Tid: 14:00 (12:00 UTC)


TAF: saknas

Aktuella väderrapporter och prognoser från 4000 flygplatser (METAR- och TAF-rapporter).

De tillgängliga stationerna syns som gula och röda prickar på kartan.

För musen över prickarna för att se namnen på stationerna.

Klicka sedan för att få väderrapporter och prognoser.

För att ändra kartan: Klicka på de gröna knapparna med ett svart kors på för att zooma in; den gröna knappen med ett streck på för att zooma ut; eller på de gröna pilarna för angränsande kartor.


METAR-TAF: